sensor_id;sensor_type;location;lat;lon;timestamp;P1;durP1;ratioP1;P2;durP2;ratioP2
36931;SDS011;22847;42.654;23.370;2022-12-10T00:01:41;30.48;;;10.10;;
36931;SDS011;22847;42.654;23.370;2022-12-10T00:04:08;38.33;;;9.55;;
36931;SDS011;22847;42.654;23.370;2022-12-10T00:06:34;29.70;;;9.70;;
36931;SDS011;22847;42.654;23.370;2022-12-10T00:09:02;33.80;;;9.88;;
36931;SDS011;22847;42.654;23.370;2022-12-10T00:11:29;27.88;;;10.20;;
36931;SDS011;22847;42.654;23.370;2022-12-10T00:13:54;38.30;;;10.45;;
36931;SDS011;22847;42.654;23.370;2022-12-10T00:16:21;29.98;;;9.23;;
36931;SDS011;22847;42.654;23.370;2022-12-10T00:18:48;33.50;;;10.38;;
36931;SDS011;22847;42.654;23.370;2022-12-10T00:21:15;27.35;;;10.30;;
36931;SDS011;22847;42.654;23.370;2022-12-10T00:23:43;21.50;;;8.40;;
36931;SDS011;22847;42.654;23.370;2022-12-10T00:26:12;32.10;;;9.80;;
36931;SDS011;22847;42.654;23.370;2022-12-10T00:28:40;25.65;;;9.40;;
36931;SDS011;22847;42.654;23.370;2022-12-10T00:31:07;27.15;;;10.90;;
36931;SDS011;22847;42.654;23.370;2022-12-10T00:33:34;32.47;;;9.20;;
36931;SDS011;22847;42.654;23.370;2022-12-10T00:38:53;35.03;;;10.25;;
36931;SDS011;22847;42.654;23.370;2022-12-10T00:41:19;30.23;;;9.88;;
36931;SDS011;22847;42.654;23.370;2022-12-10T00:43:45;29.98;;;10.55;;
36931;SDS011;22847;42.654;23.370;2022-12-10T00:46:12;29.35;;;9.80;;
36931;SDS011;22847;42.654;23.370;2022-12-10T00:48:38;22.40;;;8.63;;
36931;SDS011;22847;42.654;23.370;2022-12-10T00:51:05;24.48;;;9.02;;
36931;SDS011;22847;42.654;23.370;2022-12-10T00:53:33;23.63;;;8.75;;
36931;SDS011;22847;42.654;23.370;2022-12-10T00:55:59;24.17;;;10.05;;
36931;SDS011;22847;42.654;23.370;2022-12-10T00:58:29;25.13;;;9.27;;
36931;SDS011;22847;42.654;23.370;2022-12-10T01:01:12;25.63;;;9.35;;
36931;SDS011;22847;42.654;23.370;2022-12-10T01:08:48;21.52;;;8.02;;
36931;SDS011;22847;42.654;23.370;2022-12-10T01:11:15;22.23;;;8.05;;
36931;SDS011;22847;42.654;23.370;2022-12-10T01:13:43;20.55;;;8.35;;
36931;SDS011;22847;42.654;23.370;2022-12-10T01:16:11;18.48;;;8.40;;
36931;SDS011;22847;42.654;23.370;2022-12-10T01:18:37;37.45;;;9.65;;
36931;SDS011;22847;42.654;23.370;2022-12-10T01:21:04;25.60;;;10.05;;
36931;SDS011;22847;42.654;23.370;2022-12-10T01:23:31;23.70;;;9.35;;
36931;SDS011;22847;42.654;23.370;2022-12-10T01:26:06;29.60;;;9.85;;
36931;SDS011;22847;42.654;23.370;2022-12-10T01:28:34;25.17;;;10.82;;
36931;SDS011;22847;42.654;23.370;2022-12-10T01:31:01;30.60;;;10.02;;
36931;SDS011;22847;42.654;23.370;2022-12-10T01:33:28;25.00;;;9.32;;
36931;SDS011;22847;42.654;23.370;2022-12-10T01:35:54;26.17;;;10.73;;
36931;SDS011;22847;42.654;23.370;2022-12-10T01:38:19;30.95;;;9.82;;
36931;SDS011;22847;42.654;23.370;2022-12-10T01:40:45;24.52;;;8.88;;
36931;SDS011;22847;42.654;23.370;2022-12-10T01:43:12;34.08;;;8.95;;
36931;SDS011;22847;42.654;23.370;2022-12-10T01:45:39;21.55;;;7.68;;
36931;SDS011;22847;42.654;23.370;2022-12-10T01:48:04;27.60;;;8.02;;
36931;SDS011;22847;42.654;23.370;2022-12-10T01:50:29;25.02;;;8.30;;
36931;SDS011;22847;42.654;23.370;2022-12-10T01:52:55;18.17;;;6.93;;
36931;SDS011;22847;42.654;23.370;2022-12-10T01:58:05;21.48;;;8.50;;
36931;SDS011;22847;42.654;23.370;2022-12-10T02:00:31;22.27;;;7.95;;
36931;SDS011;22847;42.654;23.370;2022-12-10T02:03:04;17.55;;;7.63;;
36931;SDS011;22847;42.654;23.370;2022-12-10T02:05:40;24.65;;;7.78;;
36931;SDS011;22847;42.654;23.370;2022-12-10T02:08:19;27.05;;;7.57;;
36931;SDS011;22847;42.654;23.370;2022-12-10T02:18:28;18.70;;;6.65;;
36931;SDS011;22847;42.654;23.370;2022-12-10T02:20:59;21.55;;;7.03;;
36931;SDS011;22847;42.654;23.370;2022-12-10T02:23:51;22.17;;;7.60;;
36931;SDS011;22847;42.654;23.370;2022-12-10T02:29:12;33.13;;;9.02;;
36931;SDS011;22847;42.654;23.370;2022-12-10T02:31:44;26.50;;;8.32;;
36931;SDS011;22847;42.654;23.370;2022-12-10T02:34:14;22.17;;;8.38;;
36931;SDS011;22847;42.654;23.370;2022-12-10T02:36:43;14.60;;;7.82;;
36931;SDS011;22847;42.654;23.370;2022-12-10T02:39:14;20.08;;;8.35;;
36931;SDS011;22847;42.654;23.370;2022-12-10T02:41:46;23.80;;;8.10;;
36931;SDS011;22847;42.654;23.370;2022-12-10T02:44:16;21.33;;;8.05;;
36931;SDS011;22847;42.654;23.370;2022-12-10T02:46:44;26.75;;;7.60;;
36931;SDS011;22847;42.654;23.370;2022-12-10T02:49:13;22.10;;;8.55;;
36931;SDS011;22847;42.654;23.370;2022-12-10T02:51:40;23.35;;;8.23;;
36931;SDS011;22847;42.654;23.370;2022-12-10T02:54:31;25.20;;;7.78;;
36931;SDS011;22847;42.654;23.370;2022-12-10T02:57:01;21.47;;;7.43;;
36931;SDS011;22847;42.654;23.370;2022-12-10T02:59:44;23.30;;;7.57;;
36931;SDS011;22847;42.654;23.370;2022-12-10T03:02:19;24.35;;;7.30;;
36931;SDS011;22847;42.654;23.370;2022-12-10T03:05:15;12.38;;;6.35;;
36931;SDS011;22847;42.654;23.370;2022-12-10T03:08:01;23.25;;;7.70;;
36931;SDS011;22847;42.654;23.370;2022-12-10T03:13:23;18.52;;;6.80;;
36931;SDS011;22847;42.654;23.370;2022-12-10T03:16:00;17.88;;;6.68;;
36931;SDS011;22847;42.654;23.370;2022-12-10T03:18:28;23.10;;;7.22;;
36931;SDS011;22847;42.654;23.370;2022-12-10T03:20:58;12.70;;;6.28;;
36931;SDS011;22847;42.654;23.370;2022-12-10T03:23:27;22.27;;;6.53;;
36931;SDS011;22847;42.654;23.370;2022-12-10T03:25:54;16.05;;;7.25;;
36931;SDS011;22847;42.654;23.370;2022-12-10T03:28:20;18.85;;;6.95;;
36931;SDS011;22847;42.654;23.370;2022-12-10T03:30:47;14.73;;;7.38;;
36931;SDS011;22847;42.654;23.370;2022-12-10T03:33:15;14.70;;;6.80;;
36931;SDS011;22847;42.654;23.370;2022-12-10T03:35:41;17.08;;;6.20;;
36931;SDS011;22847;42.654;23.370;2022-12-10T03:38:07;13.10;;;7.03;;
36931;SDS011;22847;42.654;23.370;2022-12-10T03:40:33;22.73;;;6.97;;
36931;SDS011;22847;42.654;23.370;2022-12-10T03:42:59;14.80;;;6.00;;
36931;SDS011;22847;42.654;23.370;2022-12-10T03:45:24;15.40;;;6.43;;
36931;SDS011;22847;42.654;23.370;2022-12-10T03:47:50;15.68;;;6.38;;
36931;SDS011;22847;42.654;23.370;2022-12-10T03:50:15;12.75;;;6.35;;
36931;SDS011;22847;42.654;23.370;2022-12-10T03:52:41;21.27;;;7.00;;
36931;SDS011;22847;42.654;23.370;2022-12-10T03:55:06;17.05;;;6.30;;
36931;SDS011;22847;42.654;23.370;2022-12-10T03:57:33;18.27;;;5.85;;
36931;SDS011;22847;42.654;23.370;2022-12-10T03:59:59;14.63;;;5.13;;
36931;SDS011;22847;42.654;23.370;2022-12-10T04:02:24;10.40;;;5.40;;
36931;SDS011;22847;42.654;23.370;2022-12-10T04:04:50;18.10;;;5.85;;
36931;SDS011;22847;42.654;23.370;2022-12-10T04:07:15;16.35;;;5.65;;
36931;SDS011;22847;42.654;23.370;2022-12-10T04:09:40;18.48;;;6.05;;
36931;SDS011;22847;42.654;23.370;2022-12-10T04:12:06;13.07;;;5.65;;
36931;SDS011;22847;42.654;23.370;2022-12-10T04:14:31;10.35;;;5.43;;
36931;SDS011;22847;42.654;23.370;2022-12-10T04:17:15;14.40;;;5.72;;
36931;SDS011;22847;42.654;23.370;2022-12-10T04:19:41;12.00;;;5.72;;
36931;SDS011;22847;42.654;23.370;2022-12-10T04:22:08;19.98;;;6.57;;
36931;SDS011;22847;42.654;23.370;2022-12-10T04:24:52;18.02;;;6.38;;
36931;SDS011;22847;42.654;23.370;2022-12-10T04:27:37;14.60;;;6.10;;
36931;SDS011;22847;42.654;23.370;2022-12-10T04:30:05;14.27;;;6.50;;
36931;SDS011;22847;42.654;23.370;2022-12-10T04:32:32;20.73;;;6.22;;
36931;SDS011;22847;42.654;23.370;2022-12-10T04:34:57;17.10;;;6.15;;
36931;SDS011;22847;42.654;23.370;2022-12-10T04:37:24;16.42;;;6.10;;
36931;SDS011;22847;42.654;23.370;2022-12-10T04:39:50;19.65;;;7.25;;
36931;SDS011;22847;42.654;23.370;2022-12-10T04:42:16;20.98;;;6.85;;
36931;SDS011;22847;42.654;23.370;2022-12-10T04:44:42;15.75;;;7.10;;
36931;SDS011;22847;42.654;23.370;2022-12-10T04:47:08;27.33;;;7.03;;
36931;SDS011;22847;42.654;23.370;2022-12-10T04:49:36;15.27;;;6.85;;
36931;SDS011;22847;42.654;23.370;2022-12-10T04:52:02;18.45;;;6.65;;
36931;SDS011;22847;42.654;23.370;2022-12-10T04:54:27;15.50;;;6.60;;
36931;SDS011;22847;42.654;23.370;2022-12-10T04:56:53;19.73;;;7.68;;
36931;SDS011;22847;42.654;23.370;2022-12-10T04:59:19;16.70;;;7.35;;
36931;SDS011;22847;42.654;23.370;2022-12-10T05:01:44;13.07;;;6.15;;
36931;SDS011;22847;42.654;23.370;2022-12-10T05:04:11;14.95;;;6.28;;
36931;SDS011;22847;42.654;23.370;2022-12-10T05:06:38;19.00;;;7.40;;
36931;SDS011;22847;42.654;23.370;2022-12-10T05:09:04;19.38;;;7.38;;
36931;SDS011;22847;42.654;23.370;2022-12-10T05:11:31;20.33;;;8.85;;
36931;SDS011;22847;42.654;23.370;2022-12-10T05:13:57;20.92;;;8.48;;
36931;SDS011;22847;42.654;23.370;2022-12-10T05:16:24;23.80;;;8.80;;
36931;SDS011;22847;42.654;23.370;2022-12-10T05:18:50;22.65;;;7.55;;
36931;SDS011;22847;42.654;23.370;2022-12-10T05:21:18;17.45;;;7.90;;
36931;SDS011;22847;42.654;23.370;2022-12-10T05:23:46;16.33;;;8.13;;
36931;SDS011;22847;42.654;23.370;2022-12-10T05:26:14;14.38;;;7.32;;
36931;SDS011;22847;42.654;23.370;2022-12-10T05:28:43;16.85;;;7.78;;
36931;SDS011;22847;42.654;23.370;2022-12-10T05:31:20;15.77;;;7.88;;
36931;SDS011;22847;42.654;23.370;2022-12-10T05:33:51;14.48;;;6.82;;
36931;SDS011;22847;42.654;23.370;2022-12-10T05:36:18;19.27;;;6.80;;
36931;SDS011;22847;42.654;23.370;2022-12-10T05:38:46;13.85;;;7.15;;
36931;SDS011;22847;42.654;23.370;2022-12-10T05:41:13;16.27;;;6.78;;
36931;SDS011;22847;42.654;23.370;2022-12-10T05:43:40;19.25;;;7.30;;
36931;SDS011;22847;42.654;23.370;2022-12-10T05:46:08;16.90;;;7.05;;
36931;SDS011;22847;42.654;23.370;2022-12-10T05:48:35;15.80;;;7.57;;
36931;SDS011;22847;42.654;23.370;2022-12-10T05:51:04;16.52;;;7.40;;
36931;SDS011;22847;42.654;23.370;2022-12-10T05:53:31;16.05;;;6.85;;
36931;SDS011;22847;42.654;23.370;2022-12-10T05:56:05;20.90;;;7.95;;
36931;SDS011;22847;42.654;23.370;2022-12-10T05:58:32;17.95;;;7.22;;
36931;SDS011;22847;42.654;23.370;2022-12-10T06:00:58;23.65;;;6.88;;
36931;SDS011;22847;42.654;23.370;2022-12-10T06:03:26;18.70;;;7.32;;
36931;SDS011;22847;42.654;23.370;2022-12-10T06:05:52;15.15;;;7.35;;
36931;SDS011;22847;42.654;23.370;2022-12-10T06:08:17;22.02;;;7.32;;
36931;SDS011;22847;42.654;23.370;2022-12-10T06:10:43;14.02;;;7.57;;
36931;SDS011;22847;42.654;23.370;2022-12-10T06:13:08;27.42;;;7.05;;
36931;SDS011;22847;42.654;23.370;2022-12-10T06:15:33;21.70;;;8.95;;
36931;SDS011;22847;42.654;23.370;2022-12-10T06:17:59;19.20;;;8.10;;
36931;SDS011;22847;42.654;23.370;2022-12-10T06:20:25;20.27;;;8.10;;
36931;SDS011;22847;42.654;23.370;2022-12-10T06:22:51;20.92;;;7.80;;
36931;SDS011;22847;42.654;23.370;2022-12-10T06:25:16;17.13;;;7.95;;
36931;SDS011;22847;42.654;23.370;2022-12-10T06:27:42;15.20;;;7.53;;
36931;SDS011;22847;42.654;23.370;2022-12-10T06:30:08;20.23;;;8.23;;
36931;SDS011;22847;42.654;23.370;2022-12-10T06:32:34;21.60;;;8.48;;
36931;SDS011;22847;42.654;23.370;2022-12-10T06:34:59;16.05;;;8.30;;
36931;SDS011;22847;42.654;23.370;2022-12-10T06:37:25;24.65;;;10.90;;
36931;SDS011;22847;42.654;23.370;2022-12-10T06:39:51;20.95;;;10.07;;
36931;SDS011;22847;42.654;23.370;2022-12-10T06:42:17;33.35;;;16.02;;
36931;SDS011;22847;42.654;23.370;2022-12-10T06:44:43;22.90;;;12.07;;
36931;SDS011;22847;42.654;23.370;2022-12-10T06:47:09;24.58;;;10.63;;
36931;SDS011;22847;42.654;23.370;2022-12-10T06:49:35;16.27;;;6.65;;
36931;SDS011;22847;42.654;23.370;2022-12-10T06:52:01;18.65;;;8.85;;
36931;SDS011;22847;42.654;23.370;2022-12-10T06:54:27;18.52;;;10.23;;
36931;SDS011;22847;42.654;23.370;2022-12-10T06:56:52;24.23;;;13.52;;
36931;SDS011;22847;42.654;23.370;2022-12-10T06:59:17;25.20;;;11.30;;
36931;SDS011;22847;42.654;23.370;2022-12-10T07:01:45;23.30;;;10.93;;
36931;SDS011;22847;42.654;23.370;2022-12-10T07:04:11;22.40;;;10.50;;
36931;SDS011;22847;42.654;23.370;2022-12-10T07:06:36;22.38;;;10.05;;
36931;SDS011;22847;42.654;23.370;2022-12-10T07:09:01;22.85;;;11.02;;
36931;SDS011;22847;42.654;23.370;2022-12-10T07:11:27;21.30;;;10.13;;
36931;SDS011;22847;42.654;23.370;2022-12-10T07:13:53;16.75;;;8.60;;
36931;SDS011;22847;42.654;23.370;2022-12-10T07:16:23;17.75;;;8.55;;
36931;SDS011;22847;42.654;23.370;2022-12-10T07:18:50;19.30;;;10.20;;
36931;SDS011;22847;42.654;23.370;2022-12-10T07:21:20;19.50;;;10.15;;
36931;SDS011;22847;42.654;23.370;2022-12-10T07:23:46;18.60;;;9.35;;
36931;SDS011;22847;42.654;23.370;2022-12-10T07:26:11;25.25;;;10.32;;
36931;SDS011;22847;42.654;23.370;2022-12-10T07:28:37;20.20;;;11.18;;
36931;SDS011;22847;42.654;23.370;2022-12-10T07:31:03;22.67;;;10.75;;
36931;SDS011;22847;42.654;23.370;2022-12-10T07:33:29;25.33;;;10.55;;
36931;SDS011;22847;42.654;23.370;2022-12-10T07:35:55;20.77;;;11.23;;
36931;SDS011;22847;42.654;23.370;2022-12-10T07:38:21;25.25;;;11.07;;
36931;SDS011;22847;42.654;23.370;2022-12-10T07:40:47;26.63;;;11.02;;
36931;SDS011;22847;42.654;23.370;2022-12-10T07:43:13;24.55;;;10.68;;
36931;SDS011;22847;42.654;23.370;2022-12-10T07:45:38;30.90;;;14.02;;
36931;SDS011;22847;42.654;23.370;2022-12-10T07:48:04;20.25;;;11.38;;
36931;SDS011;22847;42.654;23.370;2022-12-10T07:50:29;29.85;;;12.40;;
36931;SDS011;22847;42.654;23.370;2022-12-10T07:52:55;25.70;;;11.73;;
36931;SDS011;22847;42.654;23.370;2022-12-10T07:55:20;26.73;;;11.82;;
36931;SDS011;22847;42.654;23.370;2022-12-10T07:57:45;26.25;;;11.02;;
36931;SDS011;22847;42.654;23.370;2022-12-10T08:00:11;22.35;;;10.77;;
36931;SDS011;22847;42.654;23.370;2022-12-10T08:02:37;22.33;;;10.82;;
36931;SDS011;22847;42.654;23.370;2022-12-10T08:05:02;24.42;;;10.25;;
36931;SDS011;22847;42.654;23.370;2022-12-10T08:07:28;29.58;;;12.95;;
36931;SDS011;22847;42.654;23.370;2022-12-10T08:09:53;28.98;;;13.70;;
36931;SDS011;22847;42.654;23.370;2022-12-10T08:12:18;27.17;;;12.35;;
36931;SDS011;22847;42.654;23.370;2022-12-10T08:14:44;25.85;;;11.48;;
36931;SDS011;22847;42.654;23.370;2022-12-10T08:17:09;23.92;;;10.98;;
36931;SDS011;22847;42.654;23.370;2022-12-10T08:19:35;19.17;;;11.20;;
36931;SDS011;22847;42.654;23.370;2022-12-10T08:22:00;25.70;;;11.43;;
36931;SDS011;22847;42.654;23.370;2022-12-10T08:24:25;18.95;;;10.93;;
36931;SDS011;22847;42.654;23.370;2022-12-10T08:26:51;23.88;;;10.63;;
36931;SDS011;22847;42.654;23.370;2022-12-10T08:29:17;27.80;;;11.80;;
36931;SDS011;22847;42.654;23.370;2022-12-10T08:31:42;26.50;;;11.75;;
36931;SDS011;22847;42.654;23.370;2022-12-10T08:34:15;23.25;;;11.23;;
36931;SDS011;22847;42.654;23.370;2022-12-10T08:36:42;22.27;;;11.18;;
36931;SDS011;22847;42.654;23.370;2022-12-10T08:39:09;33.03;;;14.18;;
36931;SDS011;22847;42.654;23.370;2022-12-10T08:41:40;24.17;;;11.60;;
36931;SDS011;22847;42.654;23.370;2022-12-10T08:44:07;28.45;;;12.35;;
36931;SDS011;22847;42.654;23.370;2022-12-10T08:46:32;25.98;;;11.80;;
36931;SDS011;22847;42.654;23.370;2022-12-10T08:48:58;25.55;;;12.15;;
36931;SDS011;22847;42.654;23.370;2022-12-10T08:51:24;24.27;;;12.35;;
36931;SDS011;22847;42.654;23.370;2022-12-10T08:53:50;26.98;;;11.18;;
36931;SDS011;22847;42.654;23.370;2022-12-10T08:56:15;22.70;;;11.68;;
36931;SDS011;22847;42.654;23.370;2022-12-10T08:58:41;20.75;;;11.15;;
36931;SDS011;22847;42.654;23.370;2022-12-10T09:01:10;23.00;;;12.15;;
36931;SDS011;22847;42.654;23.370;2022-12-10T09:03:37;24.27;;;12.90;;
36931;SDS011;22847;42.654;23.370;2022-12-10T09:06:04;30.38;;;13.30;;
36931;SDS011;22847;42.654;23.370;2022-12-10T09:08:31;24.75;;;13.13;;
36931;SDS011;22847;42.654;23.370;2022-12-10T09:10:57;25.08;;;13.95;;
36931;SDS011;22847;42.654;23.370;2022-12-10T09:13:22;23.23;;;12.00;;
36931;SDS011;22847;42.654;23.370;2022-12-10T09:15:53;26.27;;;13.52;;
36931;SDS011;22847;42.654;23.370;2022-12-10T09:18:19;22.63;;;12.55;;
36931;SDS011;22847;42.654;23.370;2022-12-10T09:20:44;28.13;;;12.73;;
36931;SDS011;22847;42.654;23.370;2022-12-10T09:23:09;26.85;;;14.15;;
36931;SDS011;22847;42.654;23.370;2022-12-10T09:25:35;32.13;;;14.52;;
36931;SDS011;22847;42.654;23.370;2022-12-10T09:28:01;31.00;;;13.73;;
36931;SDS011;22847;42.654;23.370;2022-12-10T09:30:26;29.48;;;14.52;;
36931;SDS011;22847;42.654;23.370;2022-12-10T09:32:52;23.25;;;13.55;;
36931;SDS011;22847;42.654;23.370;2022-12-10T09:35:17;27.60;;;14.35;;
36931;SDS011;22847;42.654;23.370;2022-12-10T09:37:42;36.47;;;15.23;;
36931;SDS011;22847;42.654;23.370;2022-12-10T09:40:10;27.58;;;13.20;;
36931;SDS011;22847;42.654;23.370;2022-12-10T09:43:32;26.63;;;13.70;;
36931;SDS011;22847;42.654;23.370;2022-12-10T09:46:06;28.25;;;14.20;;
36931;SDS011;22847;42.654;23.370;2022-12-10T09:51:34;31.58;;;14.82;;
36931;SDS011;22847;42.654;23.370;2022-12-10T09:54:02;29.63;;;14.30;;
36931;SDS011;22847;42.654;23.370;2022-12-10T09:56:49;28.35;;;15.43;;
36931;SDS011;22847;42.654;23.370;2022-12-10T09:59:20;29.98;;;15.25;;
36931;SDS011;22847;42.654;23.370;2022-12-10T10:01:51;25.52;;;14.43;;
36931;SDS011;22847;42.654;23.370;2022-12-10T10:04:37;28.05;;;14.50;;
36931;SDS011;22847;42.654;23.370;2022-12-10T10:07:03;23.20;;;13.48;;
36931;SDS011;22847;42.654;23.370;2022-12-10T10:09:31;22.90;;;13.25;;
36931;SDS011;22847;42.654;23.370;2022-12-10T10:12:08;27.88;;;13.70;;
36931;SDS011;22847;42.654;23.370;2022-12-10T10:14:38;24.42;;;13.68;;
36931;SDS011;22847;42.654;23.370;2022-12-10T10:17:07;25.08;;;14.65;;
36931;SDS011;22847;42.654;23.370;2022-12-10T10:19:37;33.38;;;15.35;;
36931;SDS011;22847;42.654;23.370;2022-12-10T10:22:04;38.50;;;17.45;;
36931;SDS011;22847;42.654;23.370;2022-12-10T10:24:34;34.50;;;17.52;;
36931;SDS011;22847;42.654;23.370;2022-12-10T10:27:13;28.40;;;16.65;;
36931;SDS011;22847;42.654;23.370;2022-12-10T10:29:39;34.67;;;17.80;;
36931;SDS011;22847;42.654;23.370;2022-12-10T10:32:15;26.77;;;17.02;;
36931;SDS011;22847;42.654;23.370;2022-12-10T10:34:45;30.23;;;15.88;;
36931;SDS011;22847;42.654;23.370;2022-12-10T10:37:25;29.02;;;15.30;;
36931;SDS011;22847;42.654;23.370;2022-12-10T10:39:56;51.88;;;14.25;;
36931;SDS011;22847;42.654;23.370;2022-12-10T10:45:01;29.67;;;15.15;;
36931;SDS011;22847;42.654;23.370;2022-12-10T10:47:32;35.47;;;15.88;;
36931;SDS011;22847;42.654;23.370;2022-12-10T10:49:58;28.92;;;16.75;;
36931;SDS011;22847;42.654;23.370;2022-12-10T10:52:27;31.98;;;14.52;;
36931;SDS011;22847;42.654;23.370;2022-12-10T10:55:01;32.70;;;13.75;;
36931;SDS011;22847;42.654;23.370;2022-12-10T10:57:33;31.75;;;13.40;;
36931;SDS011;22847;42.654;23.370;2022-12-10T11:00:34;28.88;;;14.73;;
36931;SDS011;22847;42.654;23.370;2022-12-10T11:02:53;28.77;;;14.68;;
36931;SDS011;22847;42.654;23.370;2022-12-10T11:05:30;31.15;;;15.00;;
36931;SDS011;22847;42.654;23.370;2022-12-10T11:10:27;31.45;;;13.98;;
36931;SDS011;22847;42.654;23.370;2022-12-10T11:12:57;26.17;;;14.20;;
36931;SDS011;22847;42.654;23.370;2022-12-10T11:15:35;26.42;;;14.93;;
36931;SDS011;22847;42.654;23.370;2022-12-10T11:20:57;28.05;;;13.75;;
36931;SDS011;22847;42.654;23.370;2022-12-10T11:23:29;30.55;;;14.65;;
36931;SDS011;22847;42.654;23.370;2022-12-10T11:34:23;24.92;;;13.50;;
36931;SDS011;22847;42.654;23.370;2022-12-10T11:50:47;22.27;;;8.68;;
36931;SDS011;22847;42.654;23.370;2022-12-10T11:59:10;19.27;;;9.90;;
36931;SDS011;22847;42.654;23.370;2022-12-10T12:01:57;21.77;;;9.88;;
36931;SDS011;22847;42.654;23.370;2022-12-10T12:07:25;19.55;;;9.85;;
36931;SDS011;22847;42.654;23.370;2022-12-10T12:15:35;21.05;;;9.82;;
36931;SDS011;22847;42.654;23.370;2022-12-10T12:18:18;23.50;;;10.45;;
36931;SDS011;22847;42.654;23.370;2022-12-10T12:20:49;16.98;;;7.28;;
36931;SDS011;22847;42.654;23.370;2022-12-10T12:23:24;14.88;;;8.40;;
36931;SDS011;22847;42.654;23.370;2022-12-10T12:26:02;21.08;;;9.43;;
36931;SDS011;22847;42.654;23.370;2022-12-10T12:28:32;26.35;;;9.57;;
36931;SDS011;22847;42.654;23.370;2022-12-10T12:31:05;20.90;;;8.77;;
36931;SDS011;22847;42.654;23.370;2022-12-10T12:33:56;17.90;;;7.85;;
36931;SDS011;22847;42.654;23.370;2022-12-10T12:36:27;19.02;;;8.50;;
36931;SDS011;22847;42.654;23.370;2022-12-10T12:39:01;12.52;;;7.25;;
36931;SDS011;22847;42.654;23.370;2022-12-10T12:41:57;17.13;;;7.45;;
36931;SDS011;22847;42.654;23.370;2022-12-10T12:49:57;15.07;;;8.10;;
36931;SDS011;22847;42.654;23.370;2022-12-10T12:55:17;17.48;;;9.43;;
36931;SDS011;22847;42.654;23.370;2022-12-10T12:57:51;17.33;;;7.38;;
36931;SDS011;22847;42.654;23.370;2022-12-10T13:00:23;28.52;;;8.10;;
36931;SDS011;22847;42.654;23.370;2022-12-10T13:06:10;22.08;;;9.50;;
36931;SDS011;22847;42.654;23.370;2022-12-10T13:11:42;22.40;;;9.90;;
36931;SDS011;22847;42.654;23.370;2022-12-10T13:22:06;26.87;;;10.63;;
36931;SDS011;22847;42.654;23.370;2022-12-10T13:37:33;20.08;;;10.88;;
36931;SDS011;22847;42.654;23.370;2022-12-10T13:43:37;24.02;;;11.55;;
36931;SDS011;22847;42.654;23.370;2022-12-10T13:48:51;18.92;;;10.82;;
36931;SDS011;22847;42.654;23.370;2022-12-10T13:56:41;33.10;;;11.93;;
36931;SDS011;22847;42.654;23.370;2022-12-10T13:59:29;23.80;;;10.77;;
36931;SDS011;22847;42.654;23.370;2022-12-10T14:07:42;23.63;;;9.50;;
36931;SDS011;22847;42.654;23.370;2022-12-10T14:10:13;26.60;;;9.20;;
36931;SDS011;22847;42.654;23.370;2022-12-10T14:12:42;18.77;;;9.55;;
36931;SDS011;22847;42.654;23.370;2022-12-10T14:15:20;20.73;;;9.85;;
36931;SDS011;22847;42.654;23.370;2022-12-10T14:17:49;20.48;;;10.00;;
36931;SDS011;22847;42.654;23.370;2022-12-10T14:20:19;25.13;;;10.75;;
36931;SDS011;22847;42.654;23.370;2022-12-10T14:22:49;17.80;;;9.77;;
36931;SDS011;22847;42.654;23.370;2022-12-10T14:25:16;24.67;;;8.75;;
36931;SDS011;22847;42.654;23.370;2022-12-10T14:27:51;24.75;;;9.88;;
36931;SDS011;22847;42.654;23.370;2022-12-10T14:30:18;26.88;;;10.10;;
36931;SDS011;22847;42.654;23.370;2022-12-10T14:32:46;25.92;;;10.13;;
36931;SDS011;22847;42.654;23.370;2022-12-10T14:35:14;27.20;;;9.52;;
36931;SDS011;22847;42.654;23.370;2022-12-10T14:37:44;27.48;;;9.48;;
36931;SDS011;22847;42.654;23.370;2022-12-10T14:40:19;30.00;;;9.85;;
36931;SDS011;22847;42.654;23.370;2022-12-10T14:42:49;19.00;;;9.25;;
36931;SDS011;22847;42.654;23.370;2022-12-10T14:45:18;27.83;;;8.95;;
36931;SDS011;22847;42.654;23.370;2022-12-10T14:47:43;26.38;;;9.38;;
36931;SDS011;22847;42.654;23.370;2022-12-10T14:50:13;32.72;;;11.15;;
36931;SDS011;22847;42.654;23.370;2022-12-10T14:52:41;25.52;;;9.68;;
36931;SDS011;22847;42.654;23.370;2022-12-10T14:55:12;25.88;;;10.13;;
36931;SDS011;22847;42.654;23.370;2022-12-10T14:57:40;23.80;;;9.52;;
36931;SDS011;22847;42.654;23.370;2022-12-10T15:00:19;31.67;;;9.57;;
36931;SDS011;22847;42.654;23.370;2022-12-10T15:02:48;23.85;;;11.07;;
36931;SDS011;22847;42.654;23.370;2022-12-10T15:05:30;26.23;;;10.85;;
36931;SDS011;22847;42.654;23.370;2022-12-10T15:10:24;34.50;;;10.80;;
36931;SDS011;22847;42.654;23.370;2022-12-10T15:12:54;22.75;;;10.95;;
36931;SDS011;22847;42.654;23.370;2022-12-10T15:15:25;33.20;;;12.07;;
36931;SDS011;22847;42.654;23.370;2022-12-10T15:20:36;31.20;;;13.32;;
36931;SDS011;22847;42.654;23.370;2022-12-10T15:23:35;45.50;;;13.48;;
36931;SDS011;22847;42.654;23.370;2022-12-10T15:30:49;29.05;;;11.48;;
36931;SDS011;22847;42.654;23.370;2022-12-10T15:33:30;28.77;;;11.98;;
36931;SDS011;22847;42.654;23.370;2022-12-10T15:35:58;41.40;;;12.88;;
36931;SDS011;22847;42.654;23.370;2022-12-10T15:38:25;27.98;;;12.45;;
36931;SDS011;22847;42.654;23.370;2022-12-10T15:40:51;29.05;;;11.10;;
36931;SDS011;22847;42.654;23.370;2022-12-10T15:43:27;27.40;;;11.43;;
36931;SDS011;22847;42.654;23.370;2022-12-10T15:45:55;31.73;;;13.18;;
36931;SDS011;22847;42.654;23.370;2022-12-10T15:48:21;25.40;;;12.18;;
36931;SDS011;22847;42.654;23.370;2022-12-10T15:50:49;29.73;;;12.05;;
36931;SDS011;22847;42.654;23.370;2022-12-10T15:53:17;28.13;;;15.02;;
36931;SDS011;22847;42.654;23.370;2022-12-10T15:55:50;35.75;;;12.63;;
36931;SDS011;22847;42.654;23.370;2022-12-10T15:58:15;39.03;;;13.65;;
36931;SDS011;22847;42.654;23.370;2022-12-10T16:00:41;32.13;;;13.43;;
36931;SDS011;22847;42.654;23.370;2022-12-10T16:03:12;42.63;;;14.88;;
36931;SDS011;22847;42.654;23.370;2022-12-10T16:05:39;40.97;;;16.02;;
36931;SDS011;22847;42.654;23.370;2022-12-10T16:08:09;33.75;;;15.93;;
36931;SDS011;22847;42.654;23.370;2022-12-10T16:10:39;37.17;;;15.13;;
36931;SDS011;22847;42.654;23.370;2022-12-10T16:13:05;42.13;;;16.95;;
36931;SDS011;22847;42.654;23.370;2022-12-10T16:15:41;34.92;;;18.17;;
36931;SDS011;22847;42.654;23.370;2022-12-10T16:18:18;37.25;;;16.92;;
36931;SDS011;22847;42.654;23.370;2022-12-10T16:20:44;41.63;;;18.58;;
36931;SDS011;22847;42.654;23.370;2022-12-10T16:23:10;36.60;;;16.80;;
36931;SDS011;22847;42.654;23.370;2022-12-10T16:25:35;39.95;;;18.23;;
36931;SDS011;22847;42.654;23.370;2022-12-10T16:28:07;44.88;;;17.67;;
36931;SDS011;22847;42.654;23.370;2022-12-10T16:30:35;43.42;;;18.83;;
36931;SDS011;22847;42.654;23.370;2022-12-10T16:33:03;20.38;;;11.20;;
36931;SDS011;22847;42.654;23.370;2022-12-10T16:35:29;24.25;;;8.15;;
36931;SDS011;22847;42.654;23.370;2022-12-10T16:37:54;24.70;;;8.23;;
36931;SDS011;22847;42.654;23.370;2022-12-10T16:40:20;15.57;;;7.03;;
36931;SDS011;22847;42.654;23.370;2022-12-10T16:42:47;17.75;;;6.97;;